Weather observations for the past three days for
Olney-Noble Airport
Imperial (Metric)
Date Time (cdt) Wind (mph) Vis. (mi.) Weather Sky Cond. Temperature (ºF) Relative Humidity Wind Chill (°F) Heat Index (°F) Pressure Precipitation (in)
Air Dwpt 6 hour altimeter (in) sea level (mb) 1 hr 3 hr 6 hr
Max. Min.
02 16:55 SW 6 10.00 Partly Cloudy SCT090 99.5 66 34% 104 29.98 0.0
02 16:35 S 7 10.00 Partly Cloudy SCT075 99.5 64.8 32% 103 29.98 0.0
02 16:15 S 7 10.00 Partly Cloudy SCT075 SCT090 100.2 64.6 31% 103 29.98 0.0
02 15:55 S 6 10.00 Partly Cloudy SCT075 SCT090 99.5 65.8 33% 103 29.98 0.0
02 15:35 S 7 10.00 Partly Cloudy SCT075 101.3 66.2 32% 106 29.99 0.0
02 15:15 W 5 10.00 Partly Cloudy SCT080 100.4 65.8 32% 105 30 0.0
02 14:55 S 6 10.00 Partly Cloudy SCT070 98.4 66.2 35% 102 30 0.0
02 14:35 SW 5 10.00 Partly Cloudy SCT070 97.7 66.4 36% 102 30.01 0.0
02 14:15 S 8 10.00 Partly Cloudy SCT070 100.4 67.1 34% 106 30.01 0.0
02 13:55 S 8 10.00 Fair CLR 99.5 67.5 35% 105 30.02 0.0
02 13:30 S 6 10.00 Fair CLR 99.3 67.6 36% 105 30.03 0.0
02 13:15 S 6 10.00 Fair CLR 98.2 67.5 37% 103 30.03 0.0
02 12:55 SW 8 10.00 Partly Cloudy SCT065 98.1 68.7 98.8 72 39% 104 30.04 0.0
02 12:35 SW 5 10.00 Fair CLR 97.7 68.9 39% 104 30.04 0.0
02 12:15 SW 5 10.00 Fair CLR 97.7 70.2 41% 105 30.05 0.0
02 11:55 SW 5 10.00 Fair CLR 96.8 70.3 42% 104 30.05 0.0
02 11:35 SW 7 10.00 Fair CLR 96.1 70 43% 103 30.06 0.0
02 11:15 W 6 10.00 Fair CLR 95 69.8 44% 101 30.07 0.0
02 10:55 W 9 7.00 Fair CLR 94.3 69.6 45% 100 30.07 0.0
02 10:35 SW 6 10.00 Fair CLR 93.7 71.2 48% 101 30.06 0.0
02 10:15 SW 6 10.00 Fair CLR 92.1 71.6 51% 99 30.06 0.0
02 09:55 SW 5 10.00 Fair CLR 90.5 71.2 53% 97 30.06 0.0
02 09:35 SW 3 10.00 Fair CLR 89.1 71.2 56% 95 30.07 0.0
02 09:15 W 5 10.00 Fair CLR 87.6 71.4 59% 94 30.07 0.0
02 08:55 SW 5 10.00 Fair CLR 86 72 63% 92 30.07 0.0
02 08:35 SW 6 10.00 Fair CLR 83.8 72 68% 89 30.08 0.0
02 08:15 S 3 10.00 Fair CLR 81.9 72.5 73% 87 30.08 0.0
02 07:55 S 3 10.00 Fair CLR 79.5 72.5 79% 83 30.08 0.0
02 07:35 Calm 10.00 Fair CLR 77 72 85% 78 30.08 0.0
02 07:15 Calm 10.00 Fair CLR 74.3 72 92% 30.08 0.0
02 06:55 Calm 10.00 Fair CLR 71.8 71.8 77.9 70.3 100% 30.07 0.0
02 06:35 Calm 10.00 Fair CLR 70.7 70.7 100% 30.06 0.0
02 06:15 Calm 10.00 Fair CLR 70.7 70.7 100% 30.05 0.0
02 05:55 Calm 10.00 Fair CLR 70.9 70.9 100% 30.05 0.0
02 05:35 Calm 10.00 Fair CLR 70.9 70.9 100% 30.05 0.0
02 05:15 Calm 10.00 Fair CLR 71.6 71.6 100% 30.05 0.0
02 04:55 Calm 10.00 Fair CLR 71.4 70.7 98% 30.04 0.0
02 04:35 Calm 2.50 Fair CLR 71.8 71.1 98% 30.04 0.0
02 04:15 Calm 10.00 Fair CLR 73.2 70.7 92% 30.04 0.0
02 03:55 Calm 10.00 Fair CLR 73.4 70.5 91% 30.04 0.0
02 03:35 Calm 10.00 Fair CLR 74.7 70.2 86% 30.03 0.0
02 03:15 Calm 10.00 Fair CLR 75.7 70 82% 76 30.03 0.0
02 02:55 Calm 10.00 Fair CLR 75.9 70 82% 77 30.04 0.0
02 02:35 Calm 10.00 Fair CLR 77.7 70 77% 80 30.04 0.0
02 02:15 Calm 10.00 Fair CLR 77.4 70 78% 79 30.03 0.0
02 01:55 Calm 10.00 Fair CLR 75.2 69.8 83% 75 30.03 0.0
02 01:35 Calm 10.00 Fair CLR 75 69.8 84% 75 30.04 0.0
02 01:15 Calm 10.00 Fair CLR 74.1 69.6 86% 30.04 0.0
02 00:55 Calm 10.00 Fair CLR 74.1 69.6 92.5 73.4 86% 30.04 0.0
02 00:35 Calm 10.00 Fair CLR 73.4 69.8 89% 30.04 0.0
02 00:15 Calm 10.00 Fair CLR 73.8 69.8 88% 30.03 0.0
01 23:55 Calm 10.00 Fair CLR 75.2 69.8 83% 75 30.03 0.0
01 23:35 Calm 10.00 Fair CLR 76.1 69.6 80% 77 30.03 0.0
01 23:15 S 3 10.00 Fair CLR 77 69.3 77% 79 30.03 0.0
01 22:55 S 3 10.00 Fair CLR 78.3 69.1 74% 81 30.03 0.0
01 22:35 S 3 10.00 Fair CLR 79.5 68.9 70% 82 30.03 0.0
01 22:15 S 3 10.00 Fair CLR 79.9 68.9 69% 83 30.03 0.0
01 21:55 S 3 10.00 Fair CLR 80.6 69.3 68% 84 30.04 0.0
01 21:35 S 3 10.00 Fair CLR 82.2 68.9 64% 86 30.03 0.0
01 21:15 S 3 10.00 Fair CLR 80.6 69.4 69% 84 30.03 0.0
01 20:55 Calm 10.00 Fair CLR 80.2 69.6 70% 83 30.02 0.0
01 20:35 SE 3 10.00 Fair CLR 81.5 69.6 67% 85 30.01 0.0
01 20:15 Calm 10.00 Fair CLR 83.7 69.1 62% 87 30.01 0.0
01 19:55 S 3 10.00 Fair CLR 84.6 69.3 60% 89 30 0.0
01 19:35 Calm 10.00 Fair CLR 87.4 68.7 54% 91 30 0.0
01 19:15 Calm 10.00 Fair CLR 90 67.8 48% 94 30 0.0
01 18:55 S 5 10.00 Fair CLR 92.7 67.1 100.6 92.7 43% 96 30 0.0
01 18:35 S 6 10.00 Fair CLR 95 66.4 39% 98 30 0.0
01 18:15 S 7 10.00 Partly Cloudy SCT080 96.3 65.3 36% 99 30 0.0
01 17:55 S 7 10.00 Partly Cloudy SCT080 97.3 65.8 36% 101 30 0.0
01 17:35 SW 3 10.00 Partly Cloudy SCT080 98.4 64.8 33% 101 30 0.0
01 17:15 S 8 7.00 Partly Cloudy SCT080 99 65.1 33% 102 30 0.0
01 16:55 S 5 10.00 Fair CLR 99.3 64.6 32% 102 30 0.0
01 16:35 Calm 10.00 Fair CLR 99.5 63.5 31% 102 30 0.0
01 16:15 SW 6 10.00 Fair CLR 99.9 63.7 31% 102 30 0.0
01 15:55 W 3 10.00 Fair CLR 99.5 63.3 31% 102 30 0.0
01 15:35 S 6 10.00 Fair CLR 99.5 63.7 31% 102 30.01 0.0
01 15:15 W 7 10.00 Fair CLR 100.2 65.3 32% 104 30.01 0.0
01 14:55 S 6 10.00 Fair CLR 100 65.7 33% 104 30.02 0.0
01 14:35 W 8 10.00 Fair CLR 99.9 65.7 33% 104 30.02 0.0
01 14:15 SW 7 10.00 Fair CLR 99.7 65.5 33% 103 30.03 0.0
01 13:55 S 6 10.00 Fair CLR 99.1 65.1 33% 103 30.04 0.0
01 13:35 W 9 10.00 Fair CLR 99.3 65.3 33% 103 30.04 0.0
01 13:15 W 9 10.00 Fair CLR 99 65.1 33% 102 30.05 0.0
01 12:55 W 6 10.00 Fair CLR 97.9 64.9 98.1 71.6 34% 101 30.05 0.0
01 12:35 W 5 10.00 Fair CLR 97.7 65.8 35% 101 30.06 0.0
01 12:15 W 7 10.00 Fair CLR 97.3 66.6 37% 101 30.07 0.0
01 11:55 W 9 10.00 Fair CLR 96.6 67.6 39% 101 30.08 0.0
01 11:35 W 8 10.00 Fair CLR 95.7 67.5 40% 100 30.08 0.0
01 11:15 W 8 10.00 Fair CLR 94.1 68.5 43% 99 30.08 0.0
01 10:55 SW 9 G 16 10.00 Fair CLR 93.2 68.5 45% 98 30.08 0.0
01 10:35 W 9 G 16 10.00 Fair CLR 92.7 68.9 46% 98 30.09 0.0
01 10:15 SW 9 10.00 Fair CLR 91.2 70 50% 97 30.08 0.0
01 09:55 W 7 10.00 Fair CLR 89.8 70.3 53% 95 30.08 0.0
01 09:35 SW 7 10.00 Fair CLR 88 70.9 57% 94 30.08 0.0
01 09:15 SW 3 10.00 Fair CLR 86 70.9 61% 91 30.09 0.0
01 08:55 SW 6 10.00 Fair CLR 84.2 71.2 65% 89 30.08 0.0
01 08:35 SW 3 10.00 Fair CLR 82 71.6 71% 87 30.09 0.0
01 08:15 Calm 10.00 Fair CLR 79.5 71.8 77% 83 30.09 0.0
01 07:55 SW 3 10.00 Fair CLR 77 71.6 83% 78 30.09 0.0
01 07:35 Calm 10.00 Fair CLR 74.8 71.1 88% 30.09 0.0
01 07:15 Calm 10.00 Fair CLR 72.7 71.2 95% 30.08 0.0
01 06:55 Calm 10.00 Fair CLR 71.6 70.5 71.6 68 96% 30.07 0.0
01 06:35 Calm 10.00 Fair CLR 69.3 69.3 100% 30.07 0.0
01 06:15 Calm 10.00 Fair CLR 68.7 68.7 100% 30.06 0.0
01 05:55 Calm 10.00 Fair CLR 68.7 68.7 100% 30.06 0.0
01 05:35 Calm 10.00 Fair CLR 68.7 68.7 100% 30.06 0.0
01 05:15 Calm 10.00 Fair CLR 68.5 68.5 100% 30.06 0.0
01 04:55 Calm 10.00 Fair CLR 68.9 68.9 100% 30.05 0.0
01 04:35 Calm 10.00 Fair CLR 70 70 100% 30.05 0.0
01 04:15 Calm 10.00 Fair CLR 69.6 69.6 100% 30.05 0.0
01 03:55 Calm 10.00 Fair CLR 69.3 69.3 100% 30.05 0.0
01 03:35 Calm 10.00 Fair CLR 68.9 68.9 100% 30.05 0.0
01 03:15 Calm 10.00 Fair CLR 69.3 69.3 100% 30.05 0.0
01 02:55 Calm 10.00 Fair CLR 69.3 69.3 100% 30.05 0.0
01 02:35 Calm 10.00 Fair CLR 70.3 70.3 100% 30.04 0.0
01 02:15 Calm 10.00 Fair CLR 70.2 70.2 100% 30.04 0.0
01 01:55 Calm 10.00 Fair CLR 70.7 70.7 100% 30.04 0.0
01 01:35 Calm 10.00 Fair CLR 70.7 70.7 100% 30.04 0.0
01 01:15 S 3 10.00 Fair CLR 71.2 70.7 98% 30.05 0.0
01 00:55 Calm 10.00 Fair CLR 71.1 70 90.5 70.7 96% 30.05 0.0
01 00:35 Calm 10.00 Fair CLR 71.1 69.4 95% 30.04 0.0
01 00:15 Calm 10.00 Fair CLR 71.6 69.3 92% 30.05 0.0
31 23:55 Calm 10.00 Fair CLR 71.6 69.1 92% 30.04 0.0
31 23:35 Calm 10.00 Fair CLR 73.4 69.3 87% 30.04 0.0
31 23:15 Calm 10.00 Fair CLR 74.1 69.3 85% 30.04 0.0
31 22:55 S 3 10.00 Fair CLR 75.6 69.1 80% 76 30.04 0.0
31 22:35 S 3 10.00 Fair CLR 77.5 69.1 75% 79 30.04 0.0
31 22:15 S 6 10.00 Fair CLR 78.4 68.9 73% 81 30.03 0.0
31 21:55 S 3 10.00 Fair CLR 79.7 68.5 69% 82 30.04 0.0
31 21:35 S 3 7.00 Fair CLR 80.1 68.4 68% 83 30.04 0.0
31 21:15 S 5 10.00 Fair CLR 82.2 68.4 63% 85 30.04 0.0
31 20:55 S 3 10.00 Fair CLR 83.3 68 60% 86 30.03 0.0
31 20:35 S 3 10.00 Fair CLR 84.6 67.6 57% 88 30.03 0.0
31 20:15 S 5 10.00 Fair CLR 85.1 67.5 56% 88 30.02 0.0
31 19:55 S 3 10.00 Fair CLR 85.8 68 55% 89 30.02 0.0
31 19:35 S 5 10.00 Fair CLR 86.7 68 54% 90 30.01 0.0
31 19:15 S 6 10.00 Fair CLR 88.3 68 51% 92 30.01 0.0
31 18:35 S 5 10.00 Fair CLR 92.5 65.7 41% 95 30.01 0.0
31 18:15 S 5 10.00 Fair CLR 94.1 64.4 38% 96 30.01 0.0
31 17:55 S 7 10.00 Fair CLR 94.8 64.4 37% 97 30.01 0.0
31 17:35 S 8 10.00 Fair CLR 95.4 64.6 36% 98 30.01 0.0
31 17:15 SW 3 10.00 Partly Cloudy SCT075 96.6 63.9 34% 99 30.01 0.0
31 16:55 SW 9 10.00 Fair CLR 97.2 59.5 29% 97 30.01 0.0
31 16:35 SW 10 10.00 Fair CLR 97 60.3 30% 97 30.01 0.0
31 16:15 S 9 G 16 10.00 Fair CLR 97.5 59 28% 97 30.01 0.0
31 15:35 SW 9 10.00 Fair CLR 97.7 60.1 29% 98 30.02 0.0
31 15:15 S 9 10.00 Fair CLR 97.5 58.6 27% 97 30.03 0.0
31 14:55 SW 7 G 17 10.00 Fair CLR 97 60.4 30% 97 30.04 0.0
31 14:35 S 10 G 17 10.00 Fair CLR 97 60.1 29% 97 30.04 0.0
31 14:15 W 9 10.00 Fair CLR 96.6 60.8 31% 97 30.05 0.0
31 13:55 SW 7 G 17 10.00 Fair CLR 96.8 61 31% 97 30.05 0.0
31 13:35 W 12 G 16 10.00 Fair CLR 96.8 60.1 30% 97 30.06 0.0
31 13:15 SW 7 10.00 Fair CLR 96.1 61.7 32% 97 30.07 0.0
31 12:55 W 9 G 16 7.00 Fair CLR 95.7 62.1 95.9 73.4 33% 97 30.07 0.0
31 12:35 SW 9 G 17 10.00 Fair CLR 95.7 62.1 33% 97 30.08 0.0
31 12:15 W 8 G 17 10.00 Fair CLR 94.5 63.7 36% 96 30.08 0.0
31 11:55 SW 6 10.00 Fair CLR 93.7 67.3 42% 98 30.09 0.0
31 11:35 SW 6 10.00 Fair CLR 92.5 68.4 45% 97 30.09 0.0
31 11:15 SW 7 G 17 10.00 Fair CLR 91.6 68.4 47% 96 30.09 0.0
31 10:55 SW 10 10.00 Fair CLR 91.4 69.3 48% 96 30.1 0.0
31 10:35 SW 7 10.00 Fair CLR 89.8 69.4 51% 95 30.09 0.0
31 10:15 SW 5 10.00 Fair CLR 89.1 71.1 55% 95 30.09 0.0
31 09:55 S 7 10.00 Fair CLR 86.9 71.4 60% 93 30.09 0.0
31 09:35 S 6 10.00 Fair CLR 85.8 71.6 63% 92 30.09 0.0
31 09:15 S 6 10.00 Fair CLR 84.7 71.6 65% 90 30.09 0.0
31 08:55 SW 6 10.00 Fair CLR 83.1 71.4 68% 88 30.08 0.0
31 08:35 SW 6 10.00 Fair CLR 81.7 71.1 70% 86 30.08 0.0
31 08:15 SW 5 10.00 Fair CLR 79.9 70.9 74% 83 30.08 0.0
31 07:55 S 6 10.00 Fair CLR 77.9 71.1 80% 80 30.07 0.0
31 07:35 Calm 10.00 Fair CLR 75.7 71.6 87% 76 30.06 0.0
31 07:15 Calm 10.00 Fair CLR 73.9 71.6 92% 30.06 0.0
31 06:55 Calm 10.00 Fair CLR 73.4 71.1 73.4 67.3 92% 30.06 0.0
31 06:35 Calm 10.00 Fair CLR 72.5 71.2 96% 30.05 0.0
31 06:15 Calm 10.00 Fair CLR 71.6 71.1 98% 30.05 0.0
31 05:55 S 3 7.00 Fair CLR 71.1 70.5 98% 30.05 0.0
31 05:35 S 5 10.00 Fair CLR 70.9 70.3 98% 30.05 0.0
31 05:15 S 5 10.00 Fair CLR 70.7 70 98% 30.05 0.0
31 04:55 S 6 10.00 Fair CLR 70.2 69.6 98% 30.04 0.0
31 04:35 Calm 10.00 Fair CLR 67.8 67.6 99% 30.04 0.0
31 04:15 Calm 10.00 Fair CLR 68.5 67.5 96% 30.04 0.0
31 03:55 Calm 10.00 Fair CLR 68.2 68 99% 30.04 0.0
31 03:35 Calm 10.00 Fair CLR 67.6 66.7 97% 30.04 0.0
31 03:15 Calm 10.00 Fair CLR 67.5 66.2 96% 30.03 0.0
31 02:55 Calm 10.00 Fair CLR 68 66.2 94% 30.04 0.0
31 02:35 Calm 10.00 Fair CLR 68.7 65.7 90% 30.04 0.0
31 02:15 S 3 10.00 Fair CLR 68 66.9 96% 30.04 0.0
31 01:55 Calm 10.00 Fair CLR 69.3 66.4 91% 30.04 0.0
31 01:35 Calm 10.00 Fair CLR 68.9 66.7 93% 30.05 0.0
31 01:15 Calm 10.00 Fair CLR 69.6 65.5 87% 30.05 0.0
31 00:55 Calm 10.00 Fair CLR 68.9 64.9 87.4 68 87% 30.05 0.0
31 00:35 Calm 10.00 Fair CLR 68.2 65.7 92% 30.05 0.0
31 00:15 Calm 10.00 Fair CLR 69.4 65.1 86% 30.04 0.0
30 23:55 S 3 10.00 Fair CLR 68.9 65.8 90% 30.04 0.0
30 23:35 Calm 10.00 Fair CLR 69.6 65.7 87% 30.05 0.0
30 23:15 S 3 10.00 Fair CLR 71.6 65.3 81% 30.04 0.0
30 22:55 Calm 10.00 Fair CLR 69.1 66.6 92% 30.04 0.0
30 22:35 Calm 10.00 Fair CLR 70.2 66.2 87% 30.04 0.0
30 22:15 Calm 10.00 Fair CLR 69.6 66 88% 30.05 0.0
30 21:55 Calm 10.00 Fair CLR 70 66.2 88% 30.05 0.0
30 21:35 Calm 10.00 Fair CLR 70.9 65.5 83% 30.04 0.0
30 21:15 Calm 10.00 Fair CLR 71.8 65.3 80% 30.05 0.0
30 20:55 Calm 10.00 Fair CLR 72 66 82% 30.04 0.0
30 20:35 Calm 10.00 Fair CLR 73.2 65.5 77% 30.04 0.0
30 20:15 Calm 10.00 Fair CLR 74.7 64.9 72% 30.03 0.0
30 19:55 Calm 10.00 Fair CLR 76.6 64.9 67% 78 30.02 0.0
30 19:35 S 3 10.00 Fair CLR 82.9 62.2 50% 84 30.02 0.0
30 19:15 Calm 10.00 Fair CLR 85.5 61.5 45% 86 30.01 0.0
30 18:55 S 5 10.00 Fair CLR 87.6 61.2 94.5 87.6 41% 88 30.02 0.0
30 18:35 S 3 10.00 Fair CLR 89.2 60.6 38% 89 30.02 0.0
30 18:15 S 5 10.00 Fair CLR 90.1 59.9 36% 90 30.02 0.0
30 17:55 S 3 10.00 Fair CLR 91.4 59 34% 91 30.02 0.0
30 17:35 S 8 10.00 Fair CLR 92.5 57.2 31% 91 30.02 0.0
Date Time (cdt) Wind (mph) Vis. (mi.) Weather Sky Cond. Air Dwpt Max. Min. Relative Humidity Wind Chill (°F) Heat Index (°F) altimeter (in) sea level (mb) 1 hr 3 hr 6 hr
6 hour
Temperature (ºF) Pressure Precipitation (in)